createdAt,value
2016-11-13T00:00:38.320Z,93.89
2016-11-13T00:01:38.577Z,93.99
2016-11-13T00:02:38.532Z,94.18
2016-11-13T00:03:38.495Z,94.18
2016-11-13T00:04:38.451Z,94.27
2016-11-13T00:05:38.409Z,93.8
2016-11-13T00:06:38.060Z,94.18
2016-11-13T00:07:38.320Z,93.99
2016-11-13T00:08:38.278Z,93.8
2016-11-13T00:09:38.236Z,93.7
2016-11-13T00:10:38.195Z,93.7
2016-11-13T00:11:38.150Z,93.7
2016-11-13T00:12:38.110Z,93.8
2016-11-13T00:13:38.063Z,93.99
2016-11-13T00:14:38.025Z,93.7
2016-11-13T00:15:37.980Z,93.8
2016-11-13T00:16:37.936Z,94.08
2016-11-13T00:17:37.897Z,93.32
2016-11-13T00:18:37.550Z,93.42
2016-11-13T00:19:37.810Z,93.7
2016-11-13T00:20:37.769Z,93.32
2016-11-13T00:21:37.722Z,93.32
2016-11-13T00:22:37.686Z,93.32
2016-11-13T00:23:37.638Z,93.42
2016-11-13T00:24:37.593Z,93.32
2016-11-13T00:25:37.554Z,93.04
2016-11-13T00:26:37.511Z,93.32
2016-11-13T00:27:37.467Z,93.23
2016-11-13T00:28:37.450Z,93.32
2016-11-13T00:29:37.384Z,93.51
2016-11-13T00:30:37.341Z,93.51
2016-11-13T00:31:37.299Z,93.42
2016-11-13T00:32:37.263Z,93.32
2016-11-13T00:33:36.911Z,93.32
2016-11-13T00:34:36.870Z,93.32
2016-11-13T00:35:37.159Z,93.32
2016-11-13T00:36:37.085Z,93.32
2016-11-13T00:37:37.040Z,93.04
2016-11-13T00:38:37.032Z,93.13
2016-11-13T00:39:36.656Z,93.13
2016-11-13T00:40:36.914Z,93.13
2016-11-13T00:41:36.871Z,93.23
2016-11-13T00:42:36.528Z,93.23
2016-11-13T00:43:36.789Z,93.7
2016-11-13T00:44:36.745Z,93.61
2016-11-13T00:45:36.699Z,93.23
2016-11-13T00:46:36.693Z,93.51
2016-11-13T00:47:36.621Z,94.08
2016-11-13T00:48:36.574Z,94.08
2016-11-13T00:49:36.530Z,94.08
2016-11-13T00:50:36.484Z,94.08
2016-11-13T00:51:36.448Z,93.7
2016-11-13T00:52:36.401Z,93.8
2016-11-13T00:53:36.357Z,93.89
2016-11-13T00:54:36.318Z,93.89
2016-11-13T00:55:36.272Z,94.08
2016-11-13T00:56:36.229Z,93.8
2016-11-13T00:57:36.188Z,93.89
2016-11-13T00:58:36.147Z,93.61
2016-11-13T00:59:36.104Z,94.18
2016-11-13T01:00:36.059Z,93.7
2016-11-13T01:01:36.030Z,94.18
2016-11-13T01:02:35.974Z,93.8
2016-11-13T01:03:35.632Z,94.08
2016-11-13T01:04:35.890Z,93.8
2016-11-13T01:05:35.846Z,93.8
2016-11-13T01:06:35.805Z,93.94
2016-11-13T01:07:35.766Z,93.94
2016-11-13T01:08:35.728Z,93.99
2016-11-13T01:09:35.677Z,93.75
2016-11-13T01:10:35.634Z,93.84
2016-11-13T01:11:35.593Z,94.08
2016-11-13T01:12:35.550Z,93.75
2016-11-13T01:13:35.203Z,93.99
2016-11-13T01:14:35.463Z,93.7
2016-11-13T01:15:35.425Z,93.89
2016-11-13T01:16:35.375Z,93.66
2016-11-13T01:17:35.333Z,94.03
2016-11-13T01:18:35.289Z,93.84
2016-11-13T01:19:34.946Z,93.66
2016-11-13T01:20:35.201Z,93.66
2016-11-13T01:21:35.163Z,93.75
2016-11-13T01:22:35.119Z,94.03
2016-11-13T01:23:35.077Z,93.94
2016-11-13T01:24:35.039Z,93.94
2016-11-13T01:25:34.997Z,93.75
2016-11-13T01:26:34.645Z,93.56
2016-11-13T01:27:34.909Z,93.66
2016-11-13T01:28:34.866Z,94.13
2016-11-13T01:29:34.821Z,94.22
2016-11-13T01:30:34.779Z,94.22
2016-11-13T01:31:34.738Z,93.84
2016-11-13T01:32:34.729Z,93.84
2016-11-13T01:33:34.648Z,94.13
2016-11-13T01:34:34.608Z,94.32
2016-11-13T01:35:34.566Z,93.84
2016-11-13T01:36:34.522Z,94.22
2016-11-13T01:37:34.479Z,94.22
2016-11-13T01:38:34.439Z,93.94
2016-11-13T01:39:34.392Z,94.03
2016-11-13T01:40:34.051Z,93.75
2016-11-13T01:41:34.305Z,93.84
2016-11-13T01:42:34.267Z,93.94
2016-11-13T01:43:34.220Z,93.94
2016-11-13T01:44:34.183Z,94.03
2016-11-13T01:45:34.137Z,94.03
2016-11-13T01:46:34.095Z,94.03
2016-11-13T01:47:34.048Z,93.75
2016-11-13T01:48:34.007Z,93.94
2016-11-13T01:49:33.967Z,93.84
2016-11-13T01:50:33.927Z,94.41
2016-11-13T01:51:33.879Z,93.94
2016-11-13T01:52:33.839Z,94.22
2016-11-13T01:53:33.793Z,93.84
2016-11-13T01:54:33.751Z,94.13
2016-11-13T01:55:33.705Z,94.41
2016-11-13T01:56:33.702Z,94.13
2016-11-13T01:57:33.323Z,94.22
2016-11-13T01:58:33.580Z,94.32
2016-11-13T01:59:33.535Z,94.51
2016-11-13T02:00:33.190Z,94.41
2016-11-13T02:01:33.455Z,94.7
2016-11-13T02:02:33.411Z,94.51
2016-11-13T02:03:33.062Z,94.7
2016-11-13T02:04:33.320Z,94.7
2016-11-13T02:05:32.974Z,94.6
2016-11-13T02:06:33.232Z,95.07
2016-11-13T02:07:33.194Z,95.36
2016-11-13T02:08:33.148Z,95.07
2016-11-13T02:09:32.806Z,95.36
2016-11-13T02:10:32.762Z,95.54
2016-11-13T02:11:32.719Z,95.17
2016-11-13T02:12:32.676Z,95.36
2016-11-13T02:13:32.936Z,95.26
2016-11-13T02:14:32.895Z,95.36
2016-11-13T02:15:32.851Z,95.07
2016-11-13T02:16:32.805Z,95.17
2016-11-13T02:17:32.762Z,95.45
2016-11-13T02:18:32.723Z,95.54
2016-11-13T02:19:32.680Z,95.59
2016-11-13T02:20:32.636Z,95.36
2016-11-13T02:21:32.594Z,95.54
2016-11-13T02:22:32.548Z,95.54
2016-11-13T02:23:32.509Z,95.36
2016-11-13T02:24:32.464Z,95.4
2016-11-13T02:25:32.421Z,95.5
2016-11-13T02:26:32.380Z,95.4
2016-11-13T02:27:32.338Z,95.5
2016-11-13T02:28:32.323Z,95.59
2016-11-13T02:29:32.252Z,95.5
2016-11-13T02:30:32.208Z,95.5
2016-11-13T02:31:32.199Z,95.4
2016-11-13T02:32:32.120Z,95.88
2016-11-13T02:33:32.079Z,95.5
2016-11-13T02:34:32.036Z,95.31
2016-11-13T02:35:31.994Z,95.97
2016-11-13T02:36:31.650Z,95.5
2016-11-13T02:37:31.605Z,95.59
2016-11-13T02:38:31.866Z,95.69
2016-11-13T02:39:31.823Z,95.78
2016-11-13T02:40:31.780Z,95.78
2016-11-13T02:41:31.736Z,95.97
2016-11-13T02:42:31.695Z,95.88
2016-11-13T02:43:31.349Z,95.78
2016-11-13T02:44:31.608Z,96.07
2016-11-13T02:45:31.565Z,95.4
2016-11-13T02:46:31.219Z,95.21
2016-11-13T02:47:31.178Z,95.4
2016-11-13T02:48:31.445Z,95.78
2016-11-13T02:49:31.395Z,95.31
2016-11-13T02:50:31.352Z,95.12
2016-11-13T02:51:31.310Z,95.12
2016-11-13T02:52:31.267Z,95.4
2016-11-13T02:53:31.227Z,95.31
2016-11-13T02:54:31.181Z,95.21
2016-11-13T02:55:31.143Z,95.4
2016-11-13T02:56:31.098Z,95.21
2016-11-13T02:57:31.068Z,95.69
2016-11-13T02:58:31.012Z,95.59
2016-11-13T02:59:30.971Z,95.5
2016-11-13T03:00:30.931Z,95.69
2016-11-13T03:01:30.885Z,95.59
2016-11-13T03:02:30.843Z,95.59
2016-11-13T03:03:30.805Z,95.59
2016-11-13T03:04:30.456Z,94.84
2016-11-13T03:05:30.728Z,95.17
2016-11-13T03:06:30.671Z,95.26
2016-11-13T03:07:30.632Z,95.36
2016-11-13T03:08:30.589Z,95.07
2016-11-13T03:09:30.546Z,95.07
2016-11-13T03:10:30.540Z,95.31
2016-11-13T03:11:30.458Z,95.26
2016-11-13T03:12:30.116Z,94.7
2016-11-13T03:13:30.076Z,94.89
2016-11-13T03:14:30.332Z,94.74
2016-11-13T03:15:30.296Z,94.32
2016-11-13T03:16:29.944Z,94.27
2016-11-13T03:17:30.208Z,94.18
2016-11-13T03:18:30.162Z,94.27
2016-11-13T03:19:30.121Z,94.23
2016-11-13T03:20:30.077Z,93.7
2016-11-13T03:21:30.065Z,93.89
2016-11-13T03:22:29.990Z,94.27
2016-11-13T03:23:29.948Z,94.27
2016-11-13T03:24:29.904Z,93.75
2016-11-13T03:25:29.864Z,93.8
2016-11-13T03:26:29.521Z,93.94
2016-11-13T03:27:29.788Z,94.04
2016-11-13T03:28:29.738Z,94.13
2016-11-13T03:29:29.695Z,94.13
2016-11-13T03:30:29.652Z,94.04
2016-11-13T03:31:29.612Z,94.32
2016-11-13T03:32:29.264Z,93.94
2016-11-13T03:33:29.525Z,93.75
2016-11-13T03:34:29.484Z,93.66
2016-11-13T03:35:29.472Z,93.75
2016-11-13T03:36:29.397Z,94.04
2016-11-13T03:37:29.055Z,93.85
2016-11-13T03:38:29.313Z,93.85
2016-11-13T03:39:29.271Z,94.13
2016-11-13T03:40:28.925Z,94.13
2016-11-13T03:41:29.187Z,94.13
2016-11-13T03:42:29.142Z,93.37
2016-11-13T03:43:29.106Z,93.66
2016-11-13T03:44:29.061Z,93.56
2016-11-13T03:45:29.014Z,93.66
2016-11-13T03:46:28.974Z,93.47
2016-11-13T03:47:28.930Z,93.37
2016-11-13T03:48:28.889Z,93.47
2016-11-13T03:49:28.543Z,93.28
2016-11-13T03:50:28.806Z,93.56
2016-11-13T03:51:28.762Z,93.37
2016-11-13T03:52:28.420Z,93.47
2016-11-13T03:53:28.675Z,93.47
2016-11-13T03:54:28.636Z,93.56
2016-11-13T03:55:28.590Z,92.8
2016-11-13T03:56:28.549Z,93.09
2016-11-13T03:57:28.512Z,93.28
2016-11-13T03:58:28.463Z,93.18
2016-11-13T03:59:28.457Z,93.47
2016-11-13T04:00:28.380Z,93.18
2016-11-13T04:01:28.338Z,93.47
2016-11-13T04:02:27.994Z,93.56
2016-11-13T04:03:27.953Z,93.37
2016-11-13T04:04:28.215Z,93.47
2016-11-13T04:05:28.170Z,93.28
2016-11-13T04:06:28.156Z,93.28
2016-11-13T04:07:28.086Z,93.37
2016-11-13T04:08:28.041Z,93.47
2016-11-13T04:09:27.997Z,93.09
2016-11-13T04:10:27.960Z,92.61
2016-11-13T04:11:27.916Z,92.8
2016-11-13T04:12:27.871Z,92.52
2016-11-13T04:13:27.834Z,92.33
2016-11-13T04:14:27.788Z,92.24
2016-11-13T04:15:27.752Z,92.71
2016-11-13T04:16:27.401Z,92.61
2016-11-13T04:17:27.660Z,92.52
2016-11-13T04:18:27.619Z,92.61
2016-11-13T04:19:27.274Z,92.52
2016-11-13T04:20:27.233Z,92.9
2016-11-13T04:21:27.493Z,92.52
2016-11-13T04:22:27.148Z,92.33
2016-11-13T04:23:27.406Z,91.96
2016-11-13T04:24:27.062Z,92.52
2016-11-13T04:25:27.022Z,92.43
2016-11-13T04:26:26.979Z,92.52
2016-11-13T04:27:27.237Z,92.52
2016-11-13T04:28:27.195Z,92.71
2016-11-13T04:29:27.152Z,92.8
2016-11-13T04:30:26.811Z,92.61
2016-11-13T04:31:27.069Z,92.71
2016-11-13T04:32:27.037Z,92.52
2016-11-13T04:33:26.985Z,92.8
2016-11-13T04:34:26.941Z,92.61
2016-11-13T04:35:26.896Z,92.71
2016-11-13T04:36:26.855Z,92.61
2016-11-13T04:37:26.512Z,92.52
2016-11-13T04:38:26.771Z,92.43
2016-11-13T04:39:26.734Z,92.43
2016-11-13T04:40:26.728Z,92.52
2016-11-13T04:41:26.344Z,92.61
2016-11-13T04:42:26.604Z,91.96
2016-11-13T04:43:26.560Z,92.33
2016-11-13T04:44:26.520Z,92.24
2016-11-13T04:45:26.475Z,92.24
2016-11-13T04:46:26.132Z,92.33
2016-11-13T04:47:26.096Z,91.96
2016-11-13T04:48:26.045Z,92.52
2016-11-13T04:49:26.307Z,92.24
2016-11-13T04:50:26.261Z,92.52
2016-11-13T04:51:26.223Z,92.71
2016-11-13T04:52:25.879Z,92.71
2016-11-13T04:53:26.147Z,92.52
2016-11-13T04:54:26.094Z,92.71
2016-11-13T04:55:26.051Z,92.52
2016-11-13T04:56:26.026Z,92.71
2016-11-13T04:57:25.966Z,92.71
2016-11-13T04:58:25.926Z,92.71
2016-11-13T04:59:25.885Z,92.61
2016-11-13T05:00:25.842Z,92.52
2016-11-13T05:01:25.499Z,92.71
2016-11-13T05:02:25.760Z,92.52
2016-11-13T05:03:25.718Z,92.61
2016-11-13T05:04:25.672Z,92.52
2016-11-13T05:05:25.631Z,92.52
2016-11-13T05:06:25.623Z,92.52
2016-11-13T05:07:25.551Z,92.71
2016-11-13T05:08:25.504Z,92.43
2016-11-13T05:09:25.463Z,92.52
2016-11-13T05:10:25.422Z,92.14
2016-11-13T05:11:25.379Z,92.43
2016-11-13T05:12:25.334Z,92.52
2016-11-13T05:13:25.294Z,92.52
2016-11-13T05:14:25.254Z,92.43
2016-11-13T05:15:24.909Z,92.19
2016-11-13T05:16:24.867Z,92.47
2016-11-13T05:17:25.130Z,92.47
2016-11-13T05:18:25.083Z,92.47
2016-11-13T05:19:24.738Z,92.38
2016-11-13T05:20:24.999Z,92.57
2016-11-13T05:21:24.959Z,92.66
2016-11-13T05:22:24.917Z,92.57
2016-11-13T05:23:24.875Z,92.85
2016-11-13T05:24:24.528Z,92.57
2016-11-13T05:25:24.791Z,91.91
2016-11-13T05:26:24.748Z,91.91
2016-11-13T05:27:24.710Z,92
2016-11-13T05:28:24.664Z,91.91
2016-11-13T05:29:24.623Z,92.19
2016-11-13T05:30:24.579Z,91.81
2016-11-13T05:31:24.536Z,91.72
2016-11-13T05:32:24.493Z,91.72
2016-11-13T05:33:24.153Z,91.15
2016-11-13T05:34:24.113Z,91.15
2016-11-13T05:35:24.374Z,91.91
2016-11-13T05:36:24.328Z,91.91
2016-11-13T05:37:24.297Z,91.53
2016-11-13T05:38:24.243Z,91.43
2016-11-13T05:39:24.204Z,91.62
2016-11-13T05:40:23.857Z,91.24
2016-11-13T05:41:24.119Z,91.62
2016-11-13T05:42:23.774Z,91.81
2016-11-13T05:43:24.036Z,91.53
2016-11-13T05:44:24.022Z,91.53
2016-11-13T05:45:23.951Z,91.15
2016-11-13T05:46:23.906Z,91.91
2016-11-13T05:47:23.867Z,91.53
2016-11-13T05:48:23.823Z,91.34
2016-11-13T05:49:23.479Z,91.91
2016-11-13T05:50:23.738Z,91.53
2016-11-13T05:51:23.396Z,91.53
2016-11-13T05:52:23.663Z,91.72
2016-11-13T05:53:23.616Z,91.62
2016-11-13T05:54:23.572Z,91.62
2016-11-13T05:55:23.528Z,91.81
2016-11-13T05:56:23.489Z,91.62
2016-11-13T05:57:23.448Z,91.62
2016-11-13T05:58:23.408Z,91.43
2016-11-13T05:59:23.361Z,91.62
2016-11-13T06:00:23.318Z,91.34
2016-11-13T06:01:23.276Z,91.62
2016-11-13T06:02:23.238Z,91.43
2016-11-13T06:03:23.193Z,91.62
2016-11-13T06:04:23.151Z,91.53
2016-11-13T06:05:23.109Z,91.81
2016-11-13T06:06:23.069Z,91.53
2016-11-13T06:07:23.028Z,91.62
2016-11-13T06:08:22.987Z,91.43
2016-11-13T06:09:22.943Z,91.81
2016-11-13T06:10:22.612Z,91.43
2016-11-13T06:11:22.858Z,91.53
2016-11-13T06:12:22.824Z,91.34
2016-11-13T06:13:22.784Z,91.53
2016-11-13T06:14:22.734Z,91.43
2016-11-13T06:15:22.690Z,91.15
2016-11-13T06:16:22.649Z,91.05
2016-11-13T06:17:22.606Z,91.43
2016-11-13T06:18:22.567Z,91.43
2016-11-13T06:19:22.233Z,91.53
2016-11-13T06:20:22.518Z,91.34
2016-11-13T06:21:22.440Z,91.24
2016-11-13T06:22:22.101Z,91.53
2016-11-13T06:23:22.358Z,91.43
2016-11-13T06:24:22.317Z,91.43
2016-11-13T06:25:22.272Z,91.53
2016-11-13T06:26:22.232Z,91.91
2016-11-13T06:27:22.189Z,91.43
2016-11-13T06:28:22.144Z,91.72
2016-11-13T06:29:21.806Z,91.53
2016-11-13T06:30:22.069Z,91.72
2016-11-13T06:31:22.022Z,91.43
2016-11-13T06:32:21.978Z,91.24
2016-11-13T06:33:21.941Z,91.34
2016-11-13T06:34:21.896Z,91.24
2016-11-13T06:35:21.854Z,91.05
2016-11-13T06:36:21.809Z,91.34
2016-11-13T06:37:21.773Z,91.15
2016-11-13T06:38:21.727Z,91.15
2016-11-13T06:39:21.688Z,91.53
2016-11-13T06:40:21.646Z,91.53
2016-11-13T06:41:21.601Z,90.67
2016-11-13T06:42:21.563Z,90.86
2016-11-13T06:43:21.519Z,90.67
2016-11-13T06:44:21.476Z,90.67
2016-11-13T06:45:21.436Z,91.05
2016-11-13T06:46:21.395Z,90.96
2016-11-13T06:47:21.351Z,90.58
2016-11-13T06:48:21.310Z,90.86
2016-11-13T06:49:20.968Z,90.86
2016-11-13T06:50:20.925Z,90.77
2016-11-13T06:51:20.889Z,90.58
2016-11-13T06:52:20.843Z,90.67
2016-11-13T06:53:21.102Z,90.67
2016-11-13T06:54:21.059Z,90.86
2016-11-13T06:55:21.017Z,91.05
2016-11-13T06:56:20.974Z,90.3
2016-11-13T06:57:20.968Z,90.48
2016-11-13T06:58:20.890Z,90.01
2016-11-13T06:59:20.547Z,90.11
2016-11-13T07:00:20.809Z,90.11
2016-11-13T07:01:20.763Z,90.67
2016-11-13T07:02:20.421Z,90.2
2016-11-13T07:03:20.379Z,89.82
2016-11-13T07:04:20.338Z,89.82
2016-11-13T07:05:20.627Z,89.92
2016-11-13T07:06:20.255Z,90.01
2016-11-13T07:07:20.514Z,90.3
2016-11-13T07:08:20.471Z,90.01
2016-11-13T07:09:20.435Z,89.44
2016-11-13T07:10:20.387Z,89.25
2016-11-13T07:11:20.385Z,89.06
2016-11-13T07:12:20.305Z,89.16
2016-11-13T07:13:20.267Z,89.63
2016-11-13T07:14:20.225Z,89.54
2016-11-13T07:15:20.179Z,89.54
2016-11-13T07:16:20.137Z,89.44
2016-11-13T07:17:19.791Z,90.01
2016-11-13T07:18:20.052Z,90.34
2016-11-13T07:19:20.011Z,90.15
2016-11-13T07:20:19.971Z,90.06
2016-11-13T07:21:19.931Z,90.34
2016-11-13T07:22:19.894Z,90.06
2016-11-13T07:23:19.847Z,90.34
2016-11-13T07:24:19.803Z,90.72
2016-11-13T07:25:19.768Z,90.34
2016-11-13T07:26:19.721Z,90.15
2016-11-13T07:27:19.677Z,90.15
2016-11-13T07:28:19.637Z,90.72
2016-11-13T07:29:19.593Z,90.34
2016-11-13T07:30:19.554Z,90.15
2016-11-13T07:31:19.509Z,89.77
2016-11-13T07:32:19.470Z,88.82
2016-11-13T07:33:19.429Z,88.82
2016-11-13T07:34:19.385Z,89.01
2016-11-13T07:35:19.043Z,88.17
2016-11-13T07:36:19.304Z,88.26
2016-11-13T07:37:19.268Z,87.59
2016-11-13T07:38:19.223Z,86.93
2016-11-13T07:39:18.877Z,86.74
2016-11-13T07:40:18.835Z,86.46
2016-11-13T07:41:19.096Z,86.18
2016-11-13T07:42:19.054Z,86.18
2016-11-13T07:43:19.011Z,86.46
2016-11-13T07:44:18.972Z,86.27
2016-11-13T07:45:18.926Z,86.46
2016-11-13T07:46:18.890Z,86.08
2016-11-13T07:47:18.542Z,86.08
2016-11-13T07:48:18.807Z,85.8
2016-11-13T07:49:18.761Z,85.89
2016-11-13T07:50:18.721Z,85.89
2016-11-13T07:51:18.680Z,85.99
2016-11-13T07:52:18.640Z,86.18
2016-11-13T07:53:18.593Z,86.08
2016-11-13T07:54:18.555Z,85.42
2016-11-13T07:55:18.512Z,85.61
2016-11-13T07:56:18.470Z,85.51
2016-11-13T07:57:18.431Z,85.32
2016-11-13T07:58:18.420Z,85.61
2016-11-13T07:59:18.349Z,85.61
2016-11-13T08:00:18.002Z,85.42
2016-11-13T08:01:18.270Z,85.61
2016-11-13T08:02:18.247Z,85.42
2016-11-13T08:03:18.178Z,85.51
2016-11-13T08:04:18.139Z,85.23
2016-11-13T08:05:18.099Z,84.94
2016-11-13T08:06:17.753Z,85.13
2016-11-13T08:07:18.018Z,85.13
2016-11-13T08:08:17.974Z,84.75
2016-11-13T08:09:17.935Z,85.04
2016-11-13T08:10:17.931Z,84.19
2016-11-13T08:11:17.852Z,83.94
2016-11-13T08:12:17.538Z,83.75
2016-11-13T08:13:17.466Z,83.28
2016-11-13T08:14:17.725Z,83.47
2016-11-13T08:15:17.380Z,83.28
2016-11-13T08:16:17.644Z,83
2016-11-13T08:17:17.603Z,82.71
2016-11-13T08:18:17.560Z,83
2016-11-13T08:19:17.517Z,82.81
2016-11-13T08:20:17.175Z,83
2016-11-13T08:21:17.434Z,83
2016-11-13T08:22:17.392Z,83.18
2016-11-13T08:23:17.362Z,83.28
2016-11-13T08:24:17.314Z,83
2016-11-13T08:25:17.271Z,83.18
2016-11-13T08:26:17.235Z,83
2016-11-13T08:27:17.188Z,82.9
2016-11-13T08:28:17.144Z,82.24
2016-11-13T08:29:17.104Z,82.62
2016-11-13T08:30:17.063Z,82.29
2016-11-13T08:31:16.723Z,81.95
2016-11-13T08:32:16.978Z,81.95
2016-11-13T08:33:16.944Z,82.1
2016-11-13T08:34:16.902Z,82.43
2016-11-13T08:35:16.863Z,82.39
2016-11-13T08:36:16.826Z,82.2
2016-11-13T08:37:16.784Z,83.09
2016-11-13T08:38:16.733Z,83
2016-11-13T08:39:16.695Z,83.18
2016-11-13T08:40:16.649Z,83.75
2016-11-13T08:41:16.614Z,83.37
2016-11-13T08:42:16.271Z,83.75
2016-11-13T08:43:16.227Z,84.7
2016-11-13T08:44:16.487Z,84.89
2016-11-13T08:45:16.455Z,84.61
2016-11-13T08:46:16.409Z,84.89
2016-11-13T08:47:16.061Z,85.17
2016-11-13T08:48:16.022Z,85.08
2016-11-13T08:49:16.282Z,85.17
2016-11-13T08:50:16.242Z,84.99
2016-11-13T08:51:15.898Z,85.13
2016-11-13T08:52:16.156Z,85.13
2016-11-13T08:53:16.119Z,85.22
2016-11-13T08:54:16.077Z,85.13
2016-11-13T08:55:16.038Z,85.31
2016-11-13T08:56:15.994Z,85.41
2016-11-13T08:57:15.960Z,85.31
2016-11-13T08:58:15.909Z,85.22
2016-11-13T08:59:15.871Z,85.13
2016-11-13T09:00:15.836Z,85.31
2016-11-13T09:01:15.794Z,85.22
2016-11-13T09:02:15.445Z,85.13
2016-11-13T09:03:15.706Z,84.74
2016-11-13T09:04:15.879Z,84.65
2016-11-13T09:05:15.633Z,84.65
2016-11-13T09:06:15.590Z,84.74
2016-11-13T09:07:15.551Z,84.74
2016-11-13T09:08:15.509Z,84.94
2016-11-13T09:09:15.163Z,84.55
2016-11-13T09:10:15.423Z,84.36
2016-11-13T09:11:15.079Z,84.08
2016-11-13T09:12:15.340Z,84.08
2016-11-13T09:13:14.997Z,83.51
2016-11-13T09:14:15.266Z,83.7
2016-11-13T09:15:15.225Z,83.7
2016-11-13T09:16:15.182Z,83.89
2016-11-13T09:17:15.138Z,83.13
2016-11-13T09:18:14.796Z,83.04
2016-11-13T09:19:15.056Z,83.23
2016-11-13T09:20:14.719Z,82.28
2016-11-13T09:21:14.977Z,82.28
2016-11-13T09:22:14.942Z,82.13
2016-11-13T09:23:14.898Z,81.85
2016-11-13T09:24:14.860Z,81.94
2016-11-13T09:25:14.815Z,82.04
2016-11-13T09:26:14.772Z,81.85
2016-11-13T09:27:14.733Z,81.85
2016-11-13T09:28:14.694Z,81.66
2016-11-13T09:29:14.351Z,81.37
2016-11-13T09:30:14.612Z,80.99
2016-11-13T09:31:14.574Z,80.14
2016-11-13T09:32:14.530Z,77.58
2016-11-13T09:33:14.499Z,75.87
2016-11-13T09:34:14.451Z,74.92
2016-11-13T09:35:14.415Z,75.59
2016-11-13T09:36:14.377Z,75.96
2016-11-13T09:37:14.046Z,76.92
2016-11-13T09:38:14.297Z,77.39
2016-11-13T09:39:14.253Z,78.05
2016-11-13T09:40:13.908Z,78.15
2016-11-13T09:41:14.167Z,71.89
2016-11-13T09:42:14.140Z,70.28
2016-11-13T09:43:14.096Z,69.04
2016-11-13T09:44:14.051Z,68.25
2016-11-13T09:45:14.009Z,67.96
2016-11-13T09:46:13.983Z,67.68
2016-11-13T09:47:13.932Z,67.77
2016-11-13T09:48:13.906Z,68.06
2016-11-13T09:49:13.856Z,66.93
2016-11-13T09:50:13.812Z,67.49
2016-11-13T09:51:13.777Z,67.49
2016-11-13T09:52:13.429Z,67.62
2016-11-13T09:53:13.385Z,67.33
2016-11-13T09:54:13.342Z,66.96
2016-11-13T09:55:13.310Z,66.67
2016-11-13T09:56:13.567Z,67.43
2016-11-13T09:57:13.222Z,67.33
2016-11-13T09:58:13.181Z,67.43
2016-11-13T09:59:13.140Z,66.58
2016-11-13T10:00:13.406Z,65.72
2016-11-13T10:01:13.363Z,65.72
2016-11-13T10:02:13.331Z,65.16
2016-11-13T10:03:12.984Z,64.78
2016-11-13T10:04:12.939Z,64.87
2016-11-13T10:05:13.204Z,63.92
2016-11-13T10:06:13.167Z,63.64
2016-11-13T10:07:12.822Z,63.82
2016-11-13T10:08:13.081Z,63.17
2016-11-13T10:09:13.041Z,63.45
2016-11-13T10:10:13.002Z,63.17
2016-11-13T10:11:12.660Z,63.54
2016-11-13T10:12:12.924Z,63.64
2016-11-13T10:13:12.884Z,63.82
2016-11-13T10:14:12.843Z,64.11
2016-11-13T10:15:12.803Z,64.3
2016-11-13T10:16:12.772Z,63.45
2016-11-13T10:17:12.726Z,62.88
2016-11-13T10:18:12.531Z,63.35
2016-11-13T10:19:12.340Z,63.26
2016-11-13T10:20:12.604Z,64.2
2016-11-13T10:21:12.564Z,64.01
2016-11-13T10:22:12.523Z,64.3
2016-11-13T10:23:12.180Z,62.97
2016-11-13T10:24:12.142Z,62.31
2016-11-13T10:25:12.402Z,63.17
2016-11-13T10:26:12.363Z,63.54
2016-11-13T10:27:12.331Z,63.26
2016-11-13T10:28:12.285Z,63.89
2016-11-13T10:29:12.275Z,64.46
2016-11-13T10:30:12.201Z,65.12
2016-11-13T10:31:12.193Z,65.22
2016-11-13T10:32:12.129Z,66.01
2016-11-13T10:33:12.081Z,66.01
2016-11-13T10:34:12.039Z,66.48
2016-11-13T10:35:11.998Z,66.1
2016-11-13T10:36:11.964Z,66.39
2016-11-13T10:37:11.623Z,66.2
2016-11-13T10:38:11.575Z,66.29
2016-11-13T10:39:11.543Z,66.48
2016-11-13T10:40:11.799Z,66.39
2016-11-13T10:41:11.758Z,65.16
2016-11-13T10:42:11.720Z,65.16
2016-11-13T10:43:11.379Z,64.87
2016-11-13T10:44:11.636Z,65.34
2016-11-13T10:45:11.599Z,65.34
2016-11-13T10:46:11.568Z,65.91
2016-11-13T10:47:11.537Z,66.1
2016-11-13T10:48:11.475Z,66.2
2016-11-13T10:49:11.436Z,66.2
2016-11-13T10:50:11.398Z,66.77
2016-11-13T10:51:11.353Z,66.96
2016-11-13T10:52:11.321Z,67.05
2016-11-13T10:53:11.274Z,67.14
2016-11-13T10:54:11.234Z,66.67
2016-11-13T10:55:11.192Z,66.39
2016-11-13T10:56:11.152Z,65.91
2016-11-13T10:57:11.114Z,65.16
2016-11-13T10:58:11.073Z,65.34
2016-11-13T10:59:11.031Z,64.87
2016-11-13T11:00:10.990Z,64.68
2016-11-13T11:01:10.983Z,65.25
2016-11-13T11:02:10.912Z,65.25
2016-11-13T11:03:10.871Z,65.63
2016-11-13T11:04:10.829Z,65.06
2016-11-13T11:05:10.489Z,65.16
2016-11-13T11:06:10.814Z,65.16
2016-11-13T11:07:10.710Z,64.87
2016-11-13T11:08:10.683Z,64.4
2016-11-13T11:09:10.631Z,64.2
2016-11-13T11:10:10.286Z,64.3
2016-11-13T11:11:10.552Z,64.59
2016-11-13T11:12:10.510Z,64.78
2016-11-13T11:13:10.468Z,64.78
2016-11-13T11:14:10.427Z,65.16
2016-11-13T11:15:10.086Z,64.87
2016-11-13T11:16:10.351Z,65.06
2016-11-13T11:17:10.005Z,65.06
2016-11-13T11:18:09.966Z,65.06
2016-11-13T11:19:09.928Z,64.49
2016-11-13T11:20:10.190Z,64.11
2016-11-13T11:21:10.146Z,64.01
2016-11-13T11:22:10.116Z,64.01
2016-11-13T11:23:10.071Z,64.2
2016-11-13T11:24:09.726Z,63.35
2016-11-13T11:25:09.691Z,62.69
2016-11-13T11:26:09.949Z,63.17
2016-11-13T11:27:09.605Z,63.07
2016-11-13T11:28:09.866Z,62.97
2016-11-13T11:29:09.523Z,62.78
2016-11-13T11:30:09.484Z,62.59
2016-11-13T11:31:09.745Z,62.69
2016-11-13T11:32:09.713Z,62.62
2016-11-13T11:33:09.364Z,62.15
2016-11-13T11:34:09.321Z,62.5
2016-11-13T11:35:09.281Z,62.59
2016-11-13T11:36:09.548Z,63.29
2016-11-13T11:37:09.503Z,63.57
2016-11-13T11:38:09.473Z,63.48
2016-11-13T11:39:09.424Z,63.01
2016-11-13T11:40:09.384Z,63.1
2016-11-13T11:41:09.045Z,63.29
2016-11-13T11:42:09.313Z,63.1
2016-11-13T11:43:09.266Z,62.82
2016-11-13T11:44:08.920Z,62.72
2016-11-13T11:45:09.186Z,63.01
2016-11-13T11:46:09.146Z,62.91
2016-11-13T11:47:09.108Z,62.24
2016-11-13T11:48:08.764Z,62.53
2016-11-13T11:49:08.725Z,62.62
2016-11-13T11:50:08.986Z,62.53
2016-11-13T11:51:08.948Z,62.82
2016-11-13T11:52:08.905Z,62.72
2016-11-13T11:53:08.866Z,62.72
2016-11-13T11:54:08.822Z,62.72
2016-11-13T11:55:08.784Z,62.53
2016-11-13T11:56:08.746Z,62.43
2016-11-13T11:57:08.707Z,62.72
2016-11-13T11:58:08.369Z,62.15
2016-11-13T11:59:08.323Z,62.34
2016-11-13T12:00:08.583Z,62.43
2016-11-13T12:01:08.547Z,62.24
2016-11-13T12:02:08.509Z,62.53
2016-11-13T12:03:08.467Z,62.05
2016-11-13T12:04:08.517Z,62.43
2016-11-13T12:05:08.385Z,62.05
2016-11-13T12:06:08.349Z,61.39
2016-11-13T12:07:08.867Z,61.2
2016-11-13T12:08:08.846Z,61.2
2016-11-13T12:09:07.994Z,61.01
2016-11-13T12:10:08.194Z,61.3
2016-11-13T12:11:07.850Z,60.63
2016-11-13T12:12:08.109Z,60.35
2016-11-13T12:13:08.069Z,59.68
2016-11-13T12:14:08.028Z,59.97
2016-11-13T12:15:08.026Z,60.25
2016-11-13T12:16:07.951Z,60.82
2016-11-13T12:17:07.908Z,60.19
2016-11-13T12:18:07.869Z,60.16
2016-11-13T12:19:07.832Z,60.53
2016-11-13T12:20:07.787Z,60.63
2016-11-13T12:21:07.747Z,60.82
2016-11-13T12:22:07.407Z,61.77
2016-11-13T12:23:07.669Z,62.37
2016-11-13T12:24:07.640Z,63.13
2016-11-13T12:25:07.589Z,63.32
2016-11-13T12:26:07.551Z,63.51
2016-11-13T12:27:07.519Z,64.46
2016-11-13T12:28:07.477Z,64.17
2016-11-13T12:29:07.433Z,63.89
2016-11-13T12:30:07.391Z,64.65
2016-11-13T12:31:07.352Z,64.94
2016-11-13T12:32:07.316Z,65.31
2016-11-13T12:33:07.291Z,65.03
2016-11-13T12:34:07.235Z,65.79
2016-11-13T12:35:07.192Z,65.88
2016-11-13T12:36:07.177Z,66.27
2016-11-13T12:37:07.116Z,66.27
2016-11-13T12:38:07.076Z,66.27
2016-11-13T12:39:07.036Z,66.27
2016-11-13T12:40:06.698Z,66.83
2016-11-13T12:41:06.978Z,66.36
2016-11-13T12:42:06.918Z,66.55
2016-11-13T12:43:06.929Z,66.46
2016-11-13T12:44:06.839Z,67.12
2016-11-13T12:45:06.799Z,66.83
2016-11-13T12:46:06.755Z,66.74
2016-11-13T12:47:06.424Z,67.02
2016-11-13T12:48:06.692Z,67.5
2016-11-13T12:49:06.638Z,67.79
2016-11-13T12:50:06.608Z,67.5
2016-11-13T12:51:06.565Z,67.5
2016-11-13T12:52:06.524Z,67.5
2016-11-13T12:53:06.486Z,67.69
2016-11-13T12:54:06.443Z,67.4
2016-11-13T12:55:06.408Z,66.83